Archival Weather

Tokyo Intl

Tokyo Intl, Japan (RJTT)

Report from: Friday, June 24, 2022 5:21 AM JST
Current time: Tuesday, August 16, 2022 11:11 AM JST

Current weather
Weather history
Weather forecast

Temperature24.0°C (75.2°F)
Dew point23.0°C (73.4°F)
Winds 11 kts (5.7 m/s, 12.7 mph) South (190°)
Visibility6.2 mi. (10 km)
Clouds Few clouds 300 ft. (91 m)
Ceiling: Broken clouds 800 ft. (244 m)
Altimeter29.77 in.Hg (1008 mB)
Relative humidity94 %
Density altitude1,599 ft. (487 m)
Remarks Special weather observation
Flight conditions Instrument Meteorological Conditions
Raw dataSPJP31 KWBC 232034 SPECI RJTT 232021Z 19011KT 9999 FEW003 BKN008 24/23 Q1008 RMK 1ST003 7ST008 A2977
An error has occurred. This application may no longer respond until reloaded. Reload 🗙